Jpo Gemini — A8VF7 — position and weather

sailwx.info

Track history (hours):
 
Tides and Currents Weather Stations Pressure Air Temp Water Temp Dewpoint Dewpoint Depression Visibility Wind Speed Wind Dir Waves Ship Positions

Jpo Gemini

Last reported at 2017-Jul-19 17:55 UTC. Time now 2017-Jul-26 22:39 UTC.
Position N 05°16' E 000°21'.

Length 207 m; draft 11.2 m.

Type: Cargo ship. MMSI: 636091995.

Date/timePositionNaut miles runAvg speedWind from/ knotsBaromVisibWave heightAir tempDewpointWater temp
2017-Jul-19 17:55N 05°16' E 000°21'716.0
2017-Jul-19 17:30N 05°14' E 000°14'916.0
2017-Jul-19 16:57N 05°11' E 000°06'715.9
2017-Jul-19 16:30N 05°09' W 000°01'816.1
2017-Jul-19 16:01N 05°07' W 000°09'816.2
2017-Jul-19 15:30N 05°05' W 000°17'1316.4
2017-Jul-19 14:42N 05°01' W 000°29'  
2017-Jul-14 03:39N 23°49' W 016°36'9914.1
2017-Jul-13 20:36N 25°14' W 015°38'314.4
2017-Jul-13 20:26N 25°16' W 015°37'4414.5
2017-Jul-13 17:25N 25°53' W 015°10'614.3
2017-Jul-13 16:59N 25°58' W 015°07'8614.0
2017-Jul-13 10:49N 27°10' W 014°15'2514.4
2017-Jul-13 09:04N 27°32' W 013°60'214.3
2017-Jul-13 08:54N 27°33' W 013°58'614.2
2017-Jul-13 08:30N 27°38' W 013°55'711.2
2017-Jul-13 07:54N 27°44' W 013°51'614.0
2017-Jul-13 07:30N 27°49' W 013°47'714.2
2017-Jul-13 07:00N 27°54' W 013°42'714.3
2017-Jul-13 06:30N 28°00' W 013°37'814.5
2017-Jul-13 05:59N 28°07' W 013°33'714.4
2017-Jul-13 05:29N 28°13' W 013°29'714.3
2017-Jul-13 05:00N 28°18' W 013°25'714.2
2017-Jul-13 04:29N 28°24' W 013°20'714.1
2017-Jul-13 04:00N 28°30' W 013°15'714.0
2017-Jul-13 03:30N 28°36' W 013°11'5014.0
2017-Jul-12 23:58N 29°16' W 012°38'8413.9
2017-Jul-12 17:56N 30°24' W 011°41'13014.0
2017-Jul-12 08:39N 32°10' W 010°13'313.7
2017-Jul-12 08:26N 32°12' W 010°11'613.9
2017-Jul-12 08:00N 32°17' W 010°07'714.4
2017-Jul-12 07:29N 32°23' W 010°02'1514.5
2017-Jul-12 06:29N 32°34' W 009°51'1014.6
2017-Jul-12 05:49N 32°42' W 009°44'5714.5
2017-Jul-12 01:54N 33°26' W 009°01'615.1
2017-Jul-12 01:29N 33°30' W 008°56'815.0
2017-Jul-12 00:59N 33°36' W 008°51'715.0
2017-Jul-12 00:29N 33°42' W 008°45'1515.1
2017-Jul-11 23:31N 33°54' W 008°34'114.9
2017-Jul-11 23:29N 33°54' W 008°34'714.9
2017-Jul-11 23:01N 33°59' W 008°28'714.8
2017-Jul-11 22:31N 34°05' W 008°23'814.7
2017-Jul-11 21:59N 34°11' W 008°17'714.7
2017-Jul-11 21:30N 34°17' W 008°11'814.8
2017-Jul-11 20:58N 34°23' W 008°05'714.9
2017-Jul-11 20:30N 34°28' W 007°60'714.7
2017-Jul-11 20:00N 34°34' W 007°54'715.0
2017-Jul-11 19:30N 34°38' W 007°47'815.1
2017-Jul-11 19:01N 34°43' W 007°40'714.7
2017-Jul-11 18:31N 34°48' W 007°33'714.8
2017-Jul-11 18:00N 34°53' W 007°27'714.9
2017-Jul-11 17:31N 34°58' W 007°19'815.0
2017-Jul-11 16:57N 35°03' W 007°11'714.6
2017-Jul-11 16:27N 35°07' W 007°04'714.9
2017-Jul-11 16:00N 35°11' W 006°58'8115.2
2017-Jul-11 10:41N 35°57' W 005°36'317.6
2017-Jul-11 10:30N 35°58' W 005°32'713.4
2017-Jul-11 10:01N 36°01' W 005°25'4 8.2
2017-Jul-11 09:30N 36°05' W 005°24'4 8.2
2017-Jul-11 09:00N 36°09' W 005°26'0 0.8
2017-Jul-11 08:28N 36°09' W 005°26'0 0.0
2017-Jul-11 07:58N 36°09' W 005°26'0 0.0
2017-Jul-11 07:13N 36°09' W 005°26'0 0.1
2017-Jul-11 06:58N 36°09' W 005°26'0 0.0
2017-Jul-11 06:28N 36°09' W 005°26'0 0.0
2017-Jul-11 05:52N 36°09' W 005°26'0 0.0
2017-Jul-11 05:28N 36°09' W 005°26'0 0.0
2017-Jul-11 04:58N 36°09' W 005°26'0 0.0
2017-Jul-11 04:30N 36°09' W 005°26'0 0.0
2017-Jul-11 04:00N 36°09' W 005°26'0 0.0
2017-Jul-11 03:30N 36°09' W 005°26'0 0.0
2017-Jul-11 03:00N 36°09' W 005°26'0 0.0
2017-Jul-11 02:30N 36°09' W 005°26'0 0.0
2017-Jul-11 02:00N 36°09' W 005°26'0 0.0
2017-Jul-11 01:30N 36°09' W 005°26'0 0.0
2017-Jul-11 01:00N 36°09' W 005°26'0 0.1
2017-Jul-11 00:30N 36°09' W 005°26'0 0.1
2017-Jul-11 00:00N 36°09' W 005°26'0 0.0
2017-Jul-10 23:30N 36°09' W 005°26'0 0.0
2017-Jul-10 22:57N 36°09' W 005°26'0 0.0
2017-Jul-10 22:30N 36°09' W 005°26'0 0.0
2017-Jul-10 22:00N 36°09' W 005°26'0 0.0
2017-Jul-10 21:30N 36°09' W 005°26'0 0.0
2017-Jul-10 21:00N 36°09' W 005°26'0 0.0
2017-Jul-10 20:30N 36°09' W 005°26'0 0.0
2017-Jul-10 19:57N 36°09' W 005°26'0 0.0
2017-Jul-10 19:30N 36°09' W 005°26'0 0.0
2017-Jul-10 18:51N 36°09' W 005°26'0 0.0
2017-Jul-10 18:30N 36°09' W 005°26'0 0.0
2017-Jul-10 18:00N 36°09' W 005°26'0 0.0
2017-Jul-10 17:30N 36°09' W 005°26'0 0.1
2017-Jul-10 16:57N 36°09' W 005°26'0 0.1
2017-Jul-10 16:30N 36°09' W 005°26'0 0.0
2017-Jul-10 16:00N 36°09' W 005°26'0 0.1
2017-Jul-10 15:30N 36°09' W 005°26'0 0.0
2017-Jul-10 15:00N 36°09' W 005°26'0 0.0
2017-Jul-10 14:30N 36°09' W 005°26'0 0.1
2017-Jul-10 14:00N 36°09' W 005°26'0 0.0
2017-Jul-10 13:30N 36°09' W 005°26'0 0.0
2017-Jul-10 12:57N 36°09' W 005°26'0 0.3
2017-Jul-10 12:30N 36°09' W 005°26'2 2.9
2017-Jul-10 11:46N 36°08' W 005°24'1 3.1
2017-Jul-10 11:30N 36°07' W 005°23'5 9.7
2017-Jul-10 11:01N 36°04' W 005°19'1 1.9
2017-Jul-10 10:23N 36°05' W 005°20'613.9
2017-Jul-10 09:57N 36°05' W 005°12'5 0.7
2017-Jul-10 01:48N 36°03' W 005°06'311.3
2017-Jul-10 01:30N 36°02' W 005°10'713.3
2017-Jul-10 01:00N 35°60' W 005°18'612.8
2017-Jul-10 00:30N 35°57' W 005°25'5 8.4
2017-Jul-09 23:51N 35°54' W 005°30'  
Track history (hours):
 
Tides and Currents Weather Stations Pressure Air Temp Water Temp Dewpoint Dewpoint Depression Visibility Wind Speed Wind Dir Waves Ship Positions

Jpo Gemini

Last reported at 2017-Jul-19 17:55 UTC. Time now 2017-Jul-26 22:39 UTC.
Position N 05°16' E 000°21'.

Length 207 m; draft 11.2 m.

Type: Cargo ship. MMSI: 636091995.

Date/timePositionNaut miles runAvg speedWind from/ knotsBaromVisibWave heightAir tempDewpointWater temp
2017-Jul-19 17:55N 05°16' E 000°21'716.0
2017-Jul-19 17:30N 05°14' E 000°14'916.0
2017-Jul-19 16:57N 05°11' E 000°06'715.9
2017-Jul-19 16:30N 05°09' W 000°01'816.1
2017-Jul-19 16:01N 05°07' W 000°09'816.2
2017-Jul-19 15:30N 05°05' W 000°17'1316.4
2017-Jul-19 14:42N 05°01' W 000°29'  
2017-Jul-14 03:39N 23°49' W 016°36'9914.1
2017-Jul-13 20:36N 25°14' W 015°38'314.4
2017-Jul-13 20:26N 25°16' W 015°37'4414.5
2017-Jul-13 17:25N 25°53' W 015°10'614.3
2017-Jul-13 16:59N 25°58' W 015°07'8614.0
2017-Jul-13 10:49N 27°10' W 014°15'2514.4
2017-Jul-13 09:04N 27°32' W 013°60'214.3
2017-Jul-13 08:54N 27°33' W 013°58'614.2
2017-Jul-13 08:30N 27°38' W 013°55'711.2
2017-Jul-13 07:54N 27°44' W 013°51'614.0
2017-Jul-13 07:30N 27°49' W 013°47'714.2
2017-Jul-13 07:00N 27°54' W 013°42'714.3
2017-Jul-13 06:30N 28°00' W 013°37'814.5
2017-Jul-13 05:59N 28°07' W 013°33'714.4
2017-Jul-13 05:29N 28°13' W 013°29'714.3
2017-Jul-13 05:00N 28°18' W 013°25'714.2
2017-Jul-13 04:29N 28°24' W 013°20'714.1
2017-Jul-13 04:00N 28°30' W 013°15'714.0
2017-Jul-13 03:30N 28°36' W 013°11'5014.0
2017-Jul-12 23:58N 29°16' W 012°38'8413.9
2017-Jul-12 17:56N 30°24' W 011°41'13014.0
2017-Jul-12 08:39N 32°10' W 010°13'313.7
2017-Jul-12 08:26N 32°12' W 010°11'613.9
2017-Jul-12 08:00N 32°17' W 010°07'714.4
2017-Jul-12 07:29N 32°23' W 010°02'1514.5
2017-Jul-12 06:29N 32°34' W 009°51'1014.6
2017-Jul-12 05:49N 32°42' W 009°44'5714.5
2017-Jul-12 01:54N 33°26' W 009°01'615.1
2017-Jul-12 01:29N 33°30' W 008°56'815.0
2017-Jul-12 00:59N 33°36' W 008°51'715.0
2017-Jul-12 00:29N 33°42' W 008°45'1515.1
2017-Jul-11 23:31N 33°54' W 008°34'114.9
2017-Jul-11 23:29N 33°54' W 008°34'714.9
2017-Jul-11 23:01N 33°59' W 008°28'714.8
2017-Jul-11 22:31N 34°05' W 008°23'814.7
2017-Jul-11 21:59N 34°11' W 008°17'714.7
2017-Jul-11 21:30N 34°17' W 008°11'814.8
2017-Jul-11 20:58N 34°23' W 008°05'714.9
2017-Jul-11 20:30N 34°28' W 007°60'714.7
2017-Jul-11 20:00N 34°34' W 007°54'715.0
2017-Jul-11 19:30N 34°38' W 007°47'815.1
2017-Jul-11 19:01N 34°43' W 007°40'714.7
2017-Jul-11 18:31N 34°48' W 007°33'714.8
2017-Jul-11 18:00N 34°53' W 007°27'714.9
2017-Jul-11 17:31N 34°58' W 007°19'815.0
2017-Jul-11 16:57N 35°03' W 007°11'714.6
2017-Jul-11 16:27N 35°07' W 007°04'714.9
2017-Jul-11 16:00N 35°11' W 006°58'8115.2
2017-Jul-11 10:41N 35°57' W 005°36'317.6
2017-Jul-11 10:30N 35°58' W 005°32'713.4
2017-Jul-11 10:01N 36°01' W 005°25'4 8.2
2017-Jul-11 09:30N 36°05' W 005°24'4 8.2
2017-Jul-11 09:00N 36°09' W 005°26'0 0.8
2017-Jul-11 08:28N 36°09' W 005°26'0 0.0
2017-Jul-11 07:58N 36°09' W 005°26'0 0.0
2017-Jul-11 07:13N 36°09' W 005°26'0 0.1
2017-Jul-11 06:58N 36°09' W 005°26'0 0.0
2017-Jul-11 06:28N 36°09' W 005°26'0 0.0
2017-Jul-11 05:52N 36°09' W 005°26'0 0.0
2017-Jul-11 05:28N 36°09' W 005°26'0 0.0
2017-Jul-11 04:58N 36°09' W 005°26'0 0.0
2017-Jul-11 04:30N 36°09' W 005°26'0 0.0
2017-Jul-11 04:00N 36°09' W 005°26'0 0.0
2017-Jul-11 03:30N 36°09' W 005°26'0 0.0
2017-Jul-11 03:00N 36°09' W 005°26'0 0.0
2017-Jul-11 02:30N 36°09' W 005°26'0 0.0
2017-Jul-11 02:00N 36°09' W 005°26'0 0.0
2017-Jul-11 01:30N 36°09' W 005°26'0 0.0
2017-Jul-11 01:00N 36°09' W 005°26'0 0.1
2017-Jul-11 00:30N 36°09' W 005°26'0 0.1
2017-Jul-11 00:00N 36°09' W 005°26'0 0.0
2017-Jul-10 23:30N 36°09' W 005°26'0 0.0
2017-Jul-10 22:57N 36°09' W 005°26'0 0.0
2017-Jul-10 22:30N 36°09' W 005°26'0 0.0
2017-Jul-10 22:00N 36°09' W 005°26'0 0.0
2017-Jul-10 21:30N 36°09' W 005°26'0 0.0
2017-Jul-10 21:00N 36°09' W 005°26'0 0.0
2017-Jul-10 20:30N 36°09' W 005°26'0 0.0
2017-Jul-10 19:57N 36°09' W 005°26'0 0.0
2017-Jul-10 19:30N 36°09' W 005°26'0 0.0
2017-Jul-10 18:51N 36°09' W 005°26'0 0.0
2017-Jul-10 18:30N 36°09' W 005°26'0 0.0
2017-Jul-10 18:00N 36°09' W 005°26'0 0.0
2017-Jul-10 17:30N 36°09' W 005°26'0 0.1
2017-Jul-10 16:57N 36°09' W 005°26'0 0.1
2017-Jul-10 16:30N 36°09' W 005°26'0 0.0
2017-Jul-10 16:00N 36°09' W 005°26'0 0.1
2017-Jul-10 15:30N 36°09' W 005°26'0 0.0
2017-Jul-10 15:00N 36°09' W 005°26'0 0.0
2017-Jul-10 14:30N 36°09' W 005°26'0 0.1
2017-Jul-10 14:00N 36°09' W 005°26'0 0.0
2017-Jul-10 13:30N 36°09' W 005°26'0 0.0
2017-Jul-10 12:57N 36°09' W 005°26'0 0.3
2017-Jul-10 12:30N 36°09' W 005°26'2 2.9
2017-Jul-10 11:46N 36°08' W 005°24'1 3.1
2017-Jul-10 11:30N 36°07' W 005°23'5 9.7
2017-Jul-10 11:01N 36°04' W 005°19'1 1.9
2017-Jul-10 10:23N 36°05' W 005°20'613.9
2017-Jul-10 09:57N 36°05' W 005°12'5 0.7
2017-Jul-10 01:48N 36°03' W 005°06'311.3
2017-Jul-10 01:30N 36°02' W 005°10'713.3
2017-Jul-10 01:00N 35°60' W 005°18'612.8
2017-Jul-10 00:30N 35°57' W 005°25'5 8.4
2017-Jul-09 23:51N 35°54' W 005°30'  

Dump ship's entire track history